CheckWX is a tool to help pilots better visualize weather data.  It is not intended as a substitute for an official pre-flight weather briefing.

12:16:42 UTC

KIAB TAF
Mc Connell AFB Airport
Wichita, Kansas, USA
TAF KIAB 131000Z 1310/1416 18012KT 9999 SKC 510053 510653 QNH3001INS BECMG 1315/1316 20015G25KT 9999 FEW220 510043 QNH2993INS BECMG 1323/1324 VRB06KT 9999 FEW050 510262 QNH2999INS BECMG 1402/1403 34009KT 9999 FEW019 QNH3009INS BECMG 1410/1411 35009KT 9999 OVC020 QNH3025INS TX08/1320Z TNM04/1310Z

Nov-13@
10:00 UTC

Nov-13 @ 10:00 UTC

Nov-13@
15:00 UTC

Nov-13 @ 15:00 UTC

TAF KIAB 131000Z 1310/1416 18012KT 9999 SKC 510053 510653 QNH3001INS
Wind
  • 180° at 12 KTS
Cloud Levels
  • Clear skies
Turbulence
< Light turbulence expected at 6,500' AGL extending to 9,500' AGL

Nov-13@
15:00 UTC

Nov-13 @ 15:00 UTC

Nov-13@
23:00 UTC

Nov-13 @ 23:00 UTC

BECMG 1315/1316 20015G25KT 9999 FEW220 510043 QNH2993INS

Becoming

Becoming Conditions expected by Wed, Nov 13, 2019 @ 16:00 UTC

Wind
  • 200° at 15 KTS
  • {Gusting to 25 KTS
Cloud Levels
  • Few at 22,000' AGL
Turbulence
< Light turbulence expected at 400' AGL extending to 3,400' AGL

Nov-13@
23:00 UTC

Nov-13 @ 23:00 UTC

Nov-14@
02:00 UTC

Nov-14 @ 02:00 UTC

BECMG 1323/1324 VRB06KT 9999 FEW050 510262 QNH2999INS

Becoming

Becoming Conditions expected by Thu, Nov 14, 2019 @ 00:00 UTC

Wind
  • Variable at 6 KTS
Cloud Levels
  • Few at 5,000' AGL
Turbulence
< Light turbulence expected at 2,600' AGL extending to 4,600' AGL

Nov-14@
02:00 UTC

Nov-14 @ 02:00 UTC

Nov-14@
10:00 UTC

Nov-14 @ 10:00 UTC

BECMG 1402/1403 34009KT 9999 FEW019 QNH3009INS

Becoming

Becoming Conditions expected by Thu, Nov 14, 2019 @ 03:00 UTC

Wind
  • 340° at 9 KTS
Cloud Levels
  • Few at 1,900' AGL

Nov-14@
10:00 UTC

Nov-14 @ 10:00 UTC

Nov-14@
16:00 UTC

Nov-14 @ 16:00 UTC

BECMG 1410/1411 35009KT 9999 OVC020 QNH3025INS TX08/1320Z TNM04/1310Z

Becoming

Becoming Conditions expected by Thu, Nov 14, 2019 @ 11:00 UTC

Wind
  • 350° at 9 KTS
Cloud Levels
  • Overcast at 2,000' AGL